LGRX/GPA METAR and TAF weather

Enter ICAO airport designator
Station Type Date Time Source
LGRX METAR 2018/12/12 12:50 UTC NOAA

LGRX 121250Z 31004KT 9999 SCT025 BKN080 12/02 Q1019


Station Type Date Time Source
LGRX Decoded METAR 2018/12/12 12:50 UTC NOAA

Araxos Airport , Greece (LGRX) 38-09N 021-25E 12M
Dec 12, 2018 - 07:50 AM EST / 2018.12.12 1250 UTC
Wind: from the NW (310 degrees) at 5 MPH (4 KT):0
Visibility: greater than 7 mile(s):0
Sky conditions: mostly cloudy
Temperature: 53 F (12 C)
Dew Point: 35 F (2 C)
Relative Humidity: 50%
Pressure (altimeter): 30.09 in. Hg (1019 hPa)
ob: LGRX 121250Z 31004KT 9999 SCT025 BKN080 12/02 Q1019
cycle: 13

Station Type Date Time Source
LGRX TAF 2017/09/23 18:36 UTC NOAA

TAF TAF LGRX 231700Z 2318/2406 33010KT 9999 FEW025
BECMG 2322/2324 VRB03KT


Example: see airport list